createdAt,value
2016-06-01T00:00:38.397Z,16.86
2016-06-01T00:01:12.963Z,16.8
2016-06-01T00:02:12.919Z,16.77
2016-06-01T00:03:15.812Z,16.65
2016-06-01T00:04:14.408Z,16.66
2016-06-01T00:05:13.021Z,16.77
2016-06-01T00:06:25.757Z,16.72
2016-06-01T00:07:12.885Z,16.83
2016-06-01T00:08:32.279Z,16.89
2016-06-01T00:09:13.749Z,16.91
2016-06-01T00:11:31.350Z,17.02
2016-06-01T00:12:31.409Z,17.01
2016-06-01T00:13:31.455Z,17.1
2016-06-01T00:14:44.233Z,17.12
2016-06-01T00:15:31.530Z,17.02
2016-06-01T00:16:31.573Z,17.12
2016-06-01T00:17:31.445Z,17.07
2016-06-01T00:18:31.691Z,17.05
2016-06-01T00:19:31.656Z,17.04
2016-06-01T00:20:31.868Z,17.09
2016-06-01T00:21:31.577Z,17.05
2016-06-01T00:22:34.848Z,17.01
2016-06-01T00:23:31.995Z,16.94
2016-06-01T00:24:31.768Z,16.94
2016-06-01T00:25:41.130Z,16.86
2016-06-01T00:26:44.571Z,16.79
2016-06-01T00:27:51.173Z,16.8
2016-06-01T00:28:57.615Z,16.68
2016-06-01T00:29:31.912Z,16.73
2016-06-01T00:31:03.214Z,16.66
2016-06-01T00:31:47.155Z,16.69
2016-06-01T00:32:47.033Z,16.64
2016-06-01T00:34:06.395Z,16.59
2016-06-01T00:34:47.242Z,16.58
2016-06-01T00:36:12.620Z,16.41
2016-06-01T00:36:47.264Z,16.46
2016-06-01T00:37:47.313Z,16.51
2016-06-01T00:38:47.441Z,16.44
2016-06-01T00:39:48.803Z,16.41
2016-06-01T00:40:47.353Z,16.47
2016-06-01T00:41:50.574Z,16.26
2016-06-01T00:43:00.155Z,16.28
2016-06-01T00:43:47.516Z,16.31
2016-06-01T00:44:47.441Z,16.31
2016-06-01T00:45:50.600Z,16.31
2016-06-01T00:46:50.618Z,16.28
2016-06-01T00:47:50.636Z,16.21
2016-06-01T00:48:50.561Z,16.17
2016-06-01T00:49:52.096Z,16.21
2016-06-01T00:50:50.566Z,16.12
2016-06-01T00:51:50.726Z,16.24
2016-06-01T00:52:50.588Z,16.25
2016-06-01T00:53:50.621Z,16.22
2016-06-01T00:54:52.062Z,16.21
2016-06-01T00:55:50.830Z,16.17
2016-06-01T00:56:50.676Z,16.22
2016-06-01T00:57:53.976Z,16.22
2016-06-01T00:58:51.120Z,16.22
2016-06-01T00:59:50.903Z,16.26
2016-06-01T01:00:50.921Z,16.22
2016-06-01T01:01:53.987Z,16.18
2016-06-01T01:02:50.974Z,16.22
2016-06-01T01:04:03.601Z,16.17
2016-06-01T01:04:51.011Z,16.18
2016-06-01T01:05:51.044Z,16.22
2016-06-01T01:07:10.266Z,16.16
2016-06-01T01:07:54.065Z,16.16
2016-06-01T01:09:19.943Z,16.17
2016-06-01T01:09:54.305Z,16.34
2016-06-01T01:10:54.292Z,16.47
2016-06-01T01:12:06.889Z,16.57
2016-06-01T01:12:54.219Z,16.59
2016-06-01T01:13:54.347Z,16.59
2016-06-01T01:14:54.366Z,16.58
2016-06-01T01:15:54.416Z,16.74
2016-06-01T01:16:54.261Z,16.8
2016-06-01T01:17:54.546Z,16.8
2016-06-01T01:18:54.469Z,16.82
2016-06-01T01:19:54.504Z,16.82
2016-06-01T01:21:13.694Z,16.77
2016-06-01T01:21:54.510Z,16.87
2016-06-01T01:22:54.543Z,16.84
2016-06-01T01:24:07.780Z,16.86
2016-06-01T01:24:56.018Z,16.91
2016-06-01T01:25:54.723Z,16.82
2016-06-01T01:26:54.648Z,16.91
2016-06-01T01:28:07.385Z,16.87
2016-06-01T01:28:56.107Z,16.89
2016-06-01T01:29:54.703Z,16.82
2016-06-01T01:30:54.736Z,16.84
2016-06-01T01:31:54.754Z,16.97
2016-06-01T01:32:56.179Z,16.98
2016-06-01T01:33:54.776Z,16.98
2016-06-01T01:35:14.012Z,16.99
2016-06-01T01:35:56.250Z,16.95
2016-06-01T01:36:54.706Z,16.98
2016-06-01T01:37:54.553Z,17.04
2016-06-01T01:38:54.773Z,17.09
2016-06-01T01:39:54.995Z,17.04
2016-06-01T01:40:54.794Z,17.05
2016-06-01T01:41:54.860Z,17.01
2016-06-01T01:42:55.003Z,17.12
2016-06-01T01:44:07.444Z,17.05
2016-06-01T01:44:55.008Z,17.09
2016-06-01T01:45:55.105Z,17.09
2016-06-01T01:46:55.092Z,17.09
2016-06-01T01:47:54.939Z,17.09
2016-06-01T01:48:55.113Z,17.09
2016-06-01T01:50:07.897Z,17.07
2016-06-01T01:50:55.150Z,17.04
2016-06-01T01:51:55.043Z,17.04
2016-06-01T01:53:07.999Z,17.02
2016-06-01T01:53:55.907Z,16.99
2016-06-01T01:54:55.301Z,16.99
2016-06-01T01:55:55.288Z,17.1
2016-06-01T01:57:08.072Z,17.01
2016-06-01T01:58:08.043Z,17.02
2016-06-01T01:59:20.702Z,17.01
2016-06-01T01:59:55.346Z,17.04
2016-06-01T02:00:55.395Z,17.1
2016-06-01T02:01:55.414Z,17.02
2016-06-01T02:02:55.447Z,17.05
2016-06-01T02:03:56.888Z,17.07
2016-06-01T02:04:55.500Z,17.04
2016-06-01T02:05:56.784Z,17.01
2016-06-01T02:06:55.521Z,17.02
2016-06-01T02:07:55.633Z,17.13
2016-06-01T02:09:09.150Z,17.1
2016-06-01T02:09:55.607Z,17.04
2016-06-01T02:10:55.609Z,16.97
2016-06-01T02:11:55.644Z,17.01
2016-06-01T02:12:55.647Z,17.07
2016-06-01T02:13:55.680Z,17.09
2016-06-01T02:14:55.730Z,17.02
2016-06-01T02:15:55.748Z,17.01
2016-06-01T02:16:57.173Z,17.1
2016-06-01T02:17:55.613Z,17.09
2016-06-01T02:18:58.850Z,17.02
2016-06-01T02:19:57.227Z,17.09
2016-06-01T02:20:55.840Z,17.02
2016-06-01T02:21:55.858Z,17.07
2016-06-01T02:23:08.626Z,17.05
2016-06-01T02:23:55.927Z,17.1
2016-06-01T02:26:05.509Z,17.07
2016-06-01T02:27:05.527Z,17.05
2016-06-01T02:28:05.562Z,17.02
2016-06-01T02:29:18.314Z,17.04
2016-06-01T02:30:05.599Z,17.05
2016-06-01T02:31:24.821Z,17.05
2016-06-01T02:32:05.634Z,17.05
2016-06-01T02:33:05.669Z,17.02
2016-06-01T02:34:07.140Z,16.99
2016-06-01T02:35:18.456Z,16.97
2016-06-01T02:36:05.787Z,17.04
2016-06-01T02:37:37.054Z,17.05
2016-06-01T02:38:08.822Z,17.09
2016-06-01T02:40:21.047Z,17.05
2016-06-01T02:41:21.081Z,17.02
2016-06-01T02:42:33.725Z,17.13
2016-06-01T02:43:21.134Z,17.05
2016-06-01T02:44:21.198Z,17.02
2016-06-01T02:45:24.169Z,17.07
2016-06-01T02:46:21.188Z,17.09
2016-06-01T02:47:33.925Z,17.09
2016-06-01T02:48:33.959Z,17.01
2016-06-01T02:49:36.853Z,16.95
2016-06-01T02:50:21.355Z,17.05
2016-06-01T02:51:21.295Z,16.95
2016-06-01T02:52:21.360Z,16.99
2016-06-01T02:53:21.380Z,17.05
2016-06-01T02:54:24.319Z,16.99
2016-06-01T02:55:21.385Z,17.02
2016-06-01T02:56:34.153Z,16.94
2016-06-01T02:57:21.499Z,17.01
2016-06-01T02:58:21.439Z,16.99
2016-06-01T02:59:21.489Z,16.99
2016-06-01T03:00:34.226Z,16.89
2016-06-01T03:01:34.088Z,16.83
2016-06-01T03:02:21.544Z,16.89
2016-06-01T03:03:47.093Z,16.83
2016-06-01T03:04:21.439Z,16.87
2016-06-01T03:06:21.836Z,16.87
2016-06-01T03:07:23.104Z,16.84
2016-06-01T03:08:21.748Z,16.83
2016-06-01T03:09:21.781Z,16.79
2016-06-01T03:10:23.409Z,16.77
2016-06-01T03:11:21.583Z,16.77
2016-06-01T03:12:21.806Z,16.65
2016-06-01T03:13:21.776Z,16.72
2016-06-01T03:14:21.826Z,16.8
2016-06-01T03:15:41.031Z,16.74
2016-06-01T03:16:21.738Z,16.72
2016-06-01T03:17:21.881Z,16.65
2016-06-01T03:18:21.884Z,16.69
2016-06-01T03:19:21.761Z,16.66
2016-06-01T03:20:21.795Z,16.65
2016-06-01T03:21:21.908Z,16.65
2016-06-01T03:22:41.191Z,16.61
2016-06-01T03:23:25.132Z,16.65
2016-06-01T03:24:25.260Z,16.62
2016-06-01T03:25:25.028Z,16.65
2016-06-01T03:26:44.405Z,16.64
2016-06-01T03:27:25.205Z,16.61
2016-06-01T03:28:25.224Z,16.59
2016-06-01T03:29:37.991Z,16.64
2016-06-01T03:30:38.057Z,16.64
2016-06-01T03:31:50.825Z,16.61
2016-06-01T03:32:47.578Z,16.62
2016-06-01T03:33:47.565Z,16.59
2016-06-01T03:34:47.645Z,16.58
2016-06-01T03:35:47.601Z,16.64
2016-06-01T03:36:47.635Z,16.59
2016-06-01T03:37:47.513Z,16.61
2016-06-01T03:38:47.876Z,16.51
2016-06-01T03:40:00.427Z,16.58
2016-06-01T03:41:00.461Z,16.5
2016-06-01T03:41:47.789Z,16.54
2016-06-01T03:42:47.776Z,16.55
2016-06-01T03:44:06.985Z,16.61
2016-06-01T03:44:49.220Z,16.62
2016-06-01T03:45:47.973Z,16.61
2016-06-01T03:47:00.571Z,16.68
2016-06-01T03:47:49.430Z,16.57
2016-06-01T03:48:47.730Z,16.68
2016-06-01T03:49:47.889Z,16.64
2016-06-01T03:50:47.610Z,16.58
2016-06-01T03:51:47.926Z,16.65
2016-06-01T03:52:47.974Z,16.72
2016-06-01T03:53:47.869Z,16.83
2016-06-01T03:54:48.137Z,16.76
2016-06-01T03:55:49.311Z,16.86
2016-06-01T03:56:49.486Z,16.98
2016-06-01T03:57:47.927Z,16.95
2016-06-01T03:58:48.210Z,17.04
2016-06-01T03:59:48.135Z,16.97
2016-06-01T04:00:48.168Z,16.89
2016-06-01T04:01:48.171Z,17.04
2016-06-01T04:02:48.205Z,17.2
2016-06-01T04:03:49.630Z,17.3
2016-06-01T04:04:48.258Z,17.24
2016-06-01T04:05:51.306Z,17.39
2016-06-01T04:06:49.701Z,17.42
2016-06-01T04:07:48.313Z,17.38
2016-06-01T04:08:48.893Z,17.41
2016-06-01T04:09:48.396Z,17.41
2016-06-01T04:10:49.805Z,17.41
2016-06-01T04:12:01.076Z,17.31
2016-06-01T04:12:51.451Z,17.37
2016-06-01T04:14:14.128Z,17.5
2016-06-01T04:14:48.456Z,17.63
2016-06-01T04:16:19.775Z,17.5
2016-06-01T04:17:03.730Z,17.53
2016-06-01T04:18:03.795Z,17.42
2016-06-01T04:19:03.641Z,17.37
2016-06-01T04:20:03.879Z,17.39
2016-06-01T04:21:16.756Z,17.35
2016-06-01T04:22:03.853Z,17.47
2016-06-01T04:23:03.871Z,17.39
2016-06-01T04:24:17.546Z,17.44
2016-06-01T04:25:05.329Z,17.34
2016-06-01T04:27:07.272Z,17.09
2016-06-01T04:27:19.929Z,17.16
2016-06-01T04:28:19.947Z,17.02
2016-06-01T04:29:27.652Z,17.01
2016-06-01T04:30:32.750Z,17.02
2016-06-01T04:31:20.032Z,17.1
2016-06-01T04:32:20.083Z,17.04
2016-06-01T04:33:19.913Z,16.87
2016-06-01T04:34:32.838Z,16.87
2016-06-01T04:35:32.857Z,16.98
2016-06-01T04:36:20.140Z,16.94
2016-06-01T04:37:45.940Z,16.95
2016-06-01T04:38:27.818Z,17.04
2016-06-01T04:39:21.040Z,16.95
2016-06-01T04:40:45.917Z,16.97
2016-06-01T04:41:32.998Z,17.01
2016-06-01T04:42:20.297Z,17.14
2016-06-01T04:43:40.925Z,17.22
2016-06-01T04:44:24.771Z,17.28
2016-06-01T04:45:43.992Z,17.3
2016-06-01T04:46:24.698Z,17.44
2016-06-01T04:47:24.670Z,17.46
2016-06-01T04:48:24.875Z,17.52
2016-06-01T04:49:26.317Z,17.59
2016-06-01T04:50:37.350Z,17.68
2016-06-01T04:51:24.946Z,17.78
2016-06-01T04:52:24.950Z,17.82
2016-06-01T04:53:26.405Z,17.86
2016-06-01T04:54:25.047Z,17.78
2016-06-01T04:55:25.036Z,17.78
2016-06-01T04:56:37.788Z,17.57
2016-06-01T04:57:37.806Z,17.82
2016-06-01T04:58:25.090Z,17.97
2016-06-01T04:59:56.391Z,18.36
2016-06-01T05:00:26.564Z,18.48
2016-06-01T05:01:25.177Z,18.28
2016-06-01T05:02:25.038Z,18.09
2016-06-01T05:03:25.072Z,18.15
2016-06-01T05:04:38.044Z,18.7
2016-06-01T05:05:25.265Z,19.11
2016-06-01T05:06:25.299Z,19.66
2016-06-01T05:07:26.583Z,20.14
2016-06-01T05:08:25.196Z,20.74
2016-06-01T05:09:25.355Z,20.5
2016-06-01T05:10:26.826Z,19.93
2016-06-01T05:11:25.390Z,19.49
2016-06-01T05:12:25.284Z,19.42
2016-06-01T05:13:25.334Z,19.37
2016-06-01T05:14:25.508Z,19.38
2016-06-01T05:15:25.214Z,19.35
2016-06-01T05:16:25.514Z,19.37
2016-06-01T05:17:25.282Z,19.23
2016-06-01T05:18:25.581Z,19.3
2016-06-01T05:19:25.647Z,19.41
2016-06-01T05:20:25.618Z,19.32
2016-06-01T05:21:28.528Z,19.19
2016-06-01T05:22:25.670Z,19.11
2016-06-01T05:23:31.954Z,19.04
2016-06-01T05:24:26.333Z,18.83
2016-06-01T05:25:25.600Z,18.78
2016-06-01T05:26:25.791Z,18.76
2016-06-01T05:27:51.466Z,18.76
2016-06-01T05:28:28.858Z,18.78
2016-06-01T05:29:54.549Z,18.78
2016-06-01T05:30:25.864Z,18.55
2016-06-01T05:31:25.897Z,18.64
2016-06-01T05:32:38.666Z,18.63
2016-06-01T05:33:25.966Z,18.66
2016-06-01T05:34:45.202Z,18.52
2016-06-01T05:35:25.846Z,18.48
2016-06-01T05:36:27.443Z,18.19
2016-06-01T05:37:26.071Z,18.28
2016-06-01T05:38:38.791Z,18.42
2016-06-01T05:39:26.607Z,18.3
2016-06-01T05:40:26.125Z,18.42
2016-06-01T05:41:26.174Z,18.42
2016-06-01T05:42:26.209Z,18.43
2016-06-01T05:43:26.242Z,18.28
2016-06-01T05:44:38.964Z,18.3
2016-06-01T05:45:26.092Z,18.36
2016-06-01T05:46:26.267Z,18.41
2016-06-01T05:47:27.706Z,18.43
2016-06-01T05:48:26.381Z,18.48
2016-06-01T05:49:29.384Z,18.66
2016-06-01T05:50:34.043Z,18.61
2016-06-01T05:51:26.389Z,18.63
2016-06-01T05:52:39.204Z,18.61
2016-06-01T05:53:26.456Z,18.71
2016-06-01T05:54:26.194Z,18.79
2016-06-01T05:55:26.478Z,18.98
2016-06-01T05:56:39.262Z,19.01
2016-06-01T05:57:26.530Z,18.92
2016-06-01T05:58:27.986Z,18.64
2016-06-01T05:59:26.583Z,18.86
2016-06-01T06:00:26.617Z,19.19
2016-06-01T06:01:39.369Z,18.92
2016-06-01T06:02:26.653Z,18.89
2016-06-01T06:03:52.406Z,19.05
2016-06-01T06:04:26.518Z,18.86
2016-06-01T06:05:26.754Z,19.01
2016-06-01T06:06:26.757Z,18.97
2016-06-01T06:07:39.526Z,18.97
2016-06-01T06:08:26.654Z,18.91
2016-06-01T06:09:26.843Z,18.89
2016-06-01T06:10:29.581Z,18.81
2016-06-01T06:11:39.615Z,18.92
2016-06-01T06:12:26.758Z,18.91
2016-06-01T06:13:46.011Z,18.88
2016-06-01T06:14:42.732Z,18.91
2016-06-01T06:15:42.594Z,18.73
2016-06-01T06:16:42.768Z,18.78
2016-06-01T06:17:42.631Z,18.64
2016-06-01T06:18:55.555Z,18.63
2016-06-01T06:19:45.886Z,18.49
2016-06-01T06:21:08.547Z,18.45
2016-06-01T06:21:42.735Z,18.48
2016-06-01T06:23:11.476Z,18.39
2016-06-01T06:23:42.945Z,18.41
2016-06-01T06:24:42.994Z,18.58
2016-06-01T06:25:42.997Z,18.61
2016-06-01T06:26:43.014Z,18.61
2016-06-01T06:27:43.048Z,18.78
2016-06-01T06:28:43.066Z,18.82
2016-06-01T06:29:55.664Z,18.96
2016-06-01T06:30:55.963Z,18.97
2016-06-01T06:31:43.152Z,19.09
2016-06-01T06:32:43.171Z,19.22
2016-06-01T06:34:58.271Z,19.16
2016-06-01T06:35:58.383Z,18.94
2016-06-01T06:36:58.338Z,18.96
2016-06-01T06:37:58.372Z,19.15
2016-06-01T06:38:59.812Z,18.98
2016-06-01T06:39:58.424Z,18.97
2016-06-01T06:40:58.443Z,18.89
2016-06-01T06:41:58.477Z,18.85
2016-06-01T06:43:17.654Z,18.71
2016-06-01T06:44:01.295Z,18.63
2016-06-01T06:45:01.469Z,18.61
2016-06-01T06:46:01.346Z,18.6
2016-06-01T06:47:02.946Z,18.58
2016-06-01T06:48:01.399Z,18.67
2016-06-01T06:49:01.573Z,18.64
2016-06-01T06:50:01.592Z,18.61
2016-06-01T06:51:03.067Z,18.63
2016-06-01T06:52:01.692Z,18.53
2016-06-01T06:53:01.522Z,18.61
2016-06-01T06:54:01.711Z,18.55
2016-06-01T06:55:01.714Z,18.46
2016-06-01T06:56:01.842Z,18.53
2016-06-01T06:57:01.751Z,18.46
2016-06-01T06:58:01.848Z,18.52
2016-06-01T06:59:03.072Z,18.45
2016-06-01T07:00:14.574Z,18.53
2016-06-01T07:01:14.624Z,18.49
2016-06-01T07:02:27.564Z,18.64
2016-06-01T07:03:01.596Z,18.61
2016-06-01T07:04:01.927Z,18.82
2016-06-01T07:05:05.073Z,18.82
2016-06-01T07:06:01.823Z,18.7
2016-06-01T07:07:02.044Z,18.79
2016-06-01T07:08:02.030Z,18.89
2016-06-01T07:09:02.081Z,18.94
2016-06-01T07:10:15.164Z,18.78
2016-06-01T07:11:14.838Z,18.7
2016-06-01T07:12:02.135Z,18.81
2016-06-01T07:13:27.813Z,18.76
2016-06-01T07:14:11.612Z,18.67
2016-06-01T07:15:11.677Z,18.94
2016-06-01T07:16:11.804Z,19.16
2016-06-01T07:17:11.871Z,19.35
2016-06-01T07:18:11.889Z,19.39
2016-06-01T07:19:11.876Z,19.67
2016-06-01T07:20:11.926Z,19.82
2016-06-01T07:21:11.756Z,19.99
2016-06-01T07:22:12.009Z,20.29
2016-06-01T07:23:11.839Z,20.6
2016-06-01T07:24:11.873Z,20.77
2016-06-01T07:25:24.783Z,20.86
2016-06-01T07:26:24.817Z,20.48
2016-06-01T07:27:31.288Z,20.49
2016-06-01T07:28:11.947Z,20.42
2016-06-01T07:30:12.155Z,20.07
2016-06-01T07:31:12.330Z,19.99
2016-06-01T07:32:12.067Z,20.1
2016-06-01T07:33:12.273Z,20.17
2016-06-01T07:34:12.260Z,20.12
2016-06-01T07:35:12.294Z,20.11
2016-06-01T07:36:12.578Z,20.17
2016-06-01T07:37:31.533Z,20.68
2016-06-01T07:38:15.348Z,20.9
2016-06-01T07:39:15.960Z,21.05
2016-06-01T07:40:15.682Z,21.08
2016-06-01T07:41:15.591Z,21.72
2016-06-01T07:42:15.610Z,22.61
2016-06-01T07:43:15.457Z,23.07
2016-06-01T07:44:15.646Z,23.54
2016-06-01T07:45:15.679Z,24.56
2016-06-01T07:46:15.698Z,24.92
2016-06-01T07:47:15.732Z,24.65
2016-06-01T07:48:35.016Z,23.66
2016-06-01T07:49:28.535Z,23.59
2016-06-01T07:50:15.803Z,23.66
2016-06-01T07:51:15.853Z,23.06
2016-06-01T07:52:15.870Z,22.41
2016-06-01T07:53:15.748Z,22.21
2016-06-01T07:54:17.001Z,22.21
2016-06-01T07:55:28.692Z,22.4
2016-06-01T07:56:19.022Z,22.19
2016-06-01T07:57:41.697Z,22.16
2016-06-01T07:58:15.903Z,22.15
2016-06-01T07:59:16.077Z,22.28
2016-06-01T08:00:28.846Z,22.28
2016-06-01T08:01:15.957Z,22.55
2016-06-01T08:02:16.053Z,23.01
2016-06-01T08:03:16.181Z,23.04
2016-06-01T08:04:16.059Z,23.17
2016-06-01T08:05:16.233Z,23.13
2016-06-01T08:06:24.018Z,23.42
2016-06-01T08:07:16.286Z,23.32
2016-06-01T08:08:35.711Z,23.21
2016-06-01T08:09:16.541Z,23.33
2016-06-01T08:10:42.107Z,23.17
2016-06-01T08:11:26.093Z,23.25
2016-06-01T08:12:26.112Z,23.2
2016-06-01T08:13:29.208Z,23.29
2016-06-01T08:14:26.008Z,23.76
2016-06-01T08:15:26.230Z,23.64
2016-06-01T08:16:26.248Z,23.91
2016-06-01T08:17:26.126Z,23.99
2016-06-01T08:18:26.143Z,24.06
2016-06-01T08:19:26.318Z,23.95
2016-06-01T08:20:26.165Z,23.99
2016-06-01T08:21:26.371Z,23.48
2016-06-01T08:22:26.405Z,23.17
2016-06-01T08:23:26.407Z,22.76
2016-06-01T08:24:27.894Z,22.4
2016-06-01T08:25:26.320Z,22.28
2016-06-01T08:26:29.540Z,22.06
2016-06-01T08:27:26.559Z,22.38
2016-06-01T08:28:26.577Z,22.34
2016-06-01T08:29:26.595Z,22.28
2016-06-01T08:30:26.645Z,22.25
2016-06-01T08:31:39.382Z,22.38
2016-06-01T08:32:26.697Z,22.31
2016-06-01T08:33:52.230Z,22.34
2016-06-01T08:34:36.234Z,22.18
2016-06-01T08:35:36.252Z,22.16
2016-06-01T08:36:36.255Z,22.33
2016-06-01T08:37:39.352Z,22.76
2016-06-01T08:38:50.510Z,23.17
2016-06-01T08:39:36.357Z,23.25
2016-06-01T08:40:36.360Z,23.16
2016-06-01T08:41:36.424Z,23.17
2016-06-01T08:42:44.115Z,23.08
2016-06-01T08:43:36.446Z,23.4
2016-06-01T08:44:55.542Z,23.51
2016-06-01T08:45:36.529Z,23.37
2016-06-01T08:46:36.641Z,23.51
2016-06-01T08:47:36.566Z,23.63
2016-06-01T08:48:36.616Z,23.86
2016-06-01T08:49:36.649Z,23.74
2016-06-01T08:50:36.714Z,23.7
2016-06-01T08:51:55.889Z,23.23
2016-06-01T08:52:36.704Z,23.37
2016-06-01T08:54:08.038Z,23.01
2016-06-01T08:54:47.429Z,22.96
2016-06-01T08:55:48.353Z,23.08
2016-06-01T08:56:46.887Z,23.37
2016-06-01T08:57:53.031Z,23.07
2016-06-01T08:58:46.939Z,23.51
2016-06-01T08:59:46.988Z,23.77
2016-06-01T09:00:47.367Z,24.01
2016-06-01T09:01:47.025Z,24.18
2016-06-01T09:02:50.153Z,24.25
2016-06-01T09:03:46.937Z,24.34
2016-06-01T09:04:59.752Z,24.13
2016-06-01T09:05:48.286Z,24.16
2016-06-01T09:06:47.226Z,24.11
2016-06-01T09:07:47.197Z,24.22
2016-06-01T09:08:59.966Z,24.51
2016-06-01T09:09:48.358Z,24.58
2016-06-01T09:10:47.299Z,24.94
2016-06-01T09:11:47.161Z,24.78
2016-06-01T09:12:47.352Z,24.26
2016-06-01T09:13:47.464Z,23.99
2016-06-01T09:14:47.404Z,24.06
2016-06-01T09:16:00.236Z,24
2016-06-01T09:16:47.513Z,24.19
2016-06-01T09:18:07.337Z,24.32
2016-06-01T09:18:51.160Z,24.47
2016-06-01T09:20:10.900Z,24.38
2016-06-01T09:20:54.900Z,24.16
2016-06-01T09:21:54.725Z,23.96
2016-06-01T09:22:54.938Z,23.58
2016-06-01T09:23:55.075Z,23.29
2016-06-01T09:24:56.804Z,23.49
2016-06-01T09:26:07.894Z,23.88
2016-06-01T09:26:55.087Z,24
2016-06-01T09:27:55.077Z,23.81
2016-06-01T09:28:56.551Z,23.86
2016-06-01T09:29:55.010Z,23.94
2016-06-01T09:31:07.923Z,24.28
2016-06-01T09:31:55.222Z,23.84
2016-06-01T09:32:55.274Z,23.73
2016-06-01T09:33:56.700Z,24.04
2016-06-01T09:34:55.281Z,24.61
2016-06-01T09:35:55.192Z,24.69
2016-06-01T09:36:55.382Z,24.71
2016-06-01T09:38:08.135Z,24.78
2016-06-01T09:38:55.560Z,24.79
2016-06-01T09:39:55.157Z,24.59
2016-06-01T09:40:58.347Z,24.74
2016-06-01T09:41:55.351Z,24.74
2016-06-01T09:42:55.589Z,24.65
2016-06-01T09:43:55.575Z,24.74
2016-06-01T09:44:55.625Z,24.4
2016-06-01T09:45:55.690Z,23.99
2016-06-01T09:46:58.553Z,24.19
2016-06-01T09:47:55.571Z,24.24
2016-06-01T09:49:08.481Z,24.34
2016-06-01T09:49:55.858Z,24.37
2016-06-01T09:50:55.782Z,24.4
2016-06-01T09:51:55.817Z,24.58
2016-06-01T09:53:08.585Z,24.85
2016-06-01T09:54:15.105Z,25.03
2016-06-01T09:55:21.765Z,25.31
2016-06-01T09:56:27.236Z,25.33
2016-06-01T09:56:56.002Z,25.3
2016-06-01T09:57:56.020Z,25.03
2016-06-01T09:58:57.428Z,24.78
2016-06-01T09:59:56.056Z,24.63
2016-06-01T10:00:56.075Z,24.75
2016-06-01T10:01:56.109Z,25.06
2016-06-01T10:02:56.159Z,25
2016-06-01T10:03:55.989Z,25.09
2016-06-01T10:04:56.210Z,25.3
2016-06-01T10:05:56.198Z,25.36
2016-06-01T10:06:56.091Z,25.34
2016-06-01T10:08:08.875Z,25.37
2016-06-01T10:09:15.865Z,24.97
2016-06-01T10:10:00.240Z,24.79
2016-06-01T10:11:00.430Z,24.62
2016-06-01T10:12:00.386Z,24.51
2016-06-01T10:13:00.436Z,24.41
2016-06-01T10:14:00.438Z,24.26
2016-06-01T10:15:00.331Z,24.44
2016-06-01T10:16:13.243Z,24.19
2016-06-01T10:17:00.743Z,24.31
2016-06-01T10:18:19.795Z,24.25
2016-06-01T10:19:00.701Z,24.22
2016-06-01T10:21:16.022Z,24.32
2016-06-01T10:22:15.728Z,24.36
2016-06-01T10:23:16.121Z,24.37
2016-06-01T10:24:17.531Z,24.4
2016-06-01T10:25:16.002Z,24.25
2016-06-01T10:26:16.176Z,24.38
2016-06-01T10:27:28.928Z,24.22
2016-06-01T10:28:16.228Z,24.21
2016-06-01T10:29:35.450Z,24.36
2016-06-01T10:30:16.265Z,24.4
2016-06-01T10:31:16.314Z,24.56
2016-06-01T10:32:17.755Z,24.81
2016-06-01T10:33:29.289Z,24.92
2016-06-01T10:34:29.026Z,24.97
2016-06-01T10:35:16.419Z,25.01
2016-06-01T10:36:16.266Z,24.86
2016-06-01T10:37:16.487Z,24.66
2016-06-01T10:38:16.522Z,24.55
2016-06-01T10:39:36.461Z,24.37
2016-06-01T10:40:42.526Z,24.43
2016-06-01T10:41:23.499Z,24.56
2016-06-01T10:42:24.782Z,24.68
2016-06-01T10:43:23.566Z,24.79
2016-06-01T10:44:23.584Z,24.69
2016-06-01T10:45:23.680Z,24.93
2016-06-01T10:46:23.667Z,25.12
2016-06-01T10:47:42.921Z,25.01
2016-06-01T10:48:23.704Z,25.06
2016-06-01T10:49:55.020Z,25.14
2016-06-01T10:50:33.366Z,25.12
2016-06-01T10:51:33.401Z,25.01
2016-06-01T10:52:46.199Z,25.07
2016-06-01T10:53:33.436Z,25.15
2016-06-01T10:54:33.501Z,25.21
2016-06-01T10:55:33.676Z,24.96
2016-06-01T10:56:33.585Z,24.96
2016-06-01T10:57:47.681Z,25.03
2016-06-01T10:58:33.637Z,24.89
2016-06-01T10:59:33.468Z,25
2016-06-01T11:00:46.393Z,25.22
2016-06-01T11:01:33.740Z,25.31
2016-06-01T11:02:33.710Z,25.18
2016-06-01T11:03:33.744Z,24.85
2016-06-01T11:04:46.528Z,24.94
2016-06-01T11:05:33.656Z,24.74
2016-06-01T11:06:33.815Z,24.68
2016-06-01T11:07:46.646Z,24.94
2016-06-01T11:08:33.727Z,25.16
2016-06-01T11:09:34.042Z,25.3
2016-06-01T11:10:33.951Z,25.16
2016-06-01T11:11:34.016Z,25.34
2016-06-01T11:12:33.987Z,25.43
2016-06-01T11:13:53.209Z,25.36
2016-06-01T11:14:37.071Z,25.55
2016-06-01T11:15:33.918Z,25.71
2016-06-01T11:16:46.873Z,26.07
2016-06-01T11:17:46.751Z,26.27
2016-06-01T11:18:34.176Z,26.55
2016-06-01T11:19:34.194Z,26.34
2016-06-01T11:20:35.665Z,26.46
2016-06-01T11:21:34.262Z,26.82
2016-06-01T11:22:53.483Z,26.88
2016-06-01T11:23:34.236Z,26.98
2016-06-01T11:24:35.254Z,27.04
2016-06-01T11:25:35.882Z,26.88
2016-06-01T11:26:34.384Z,26.96
2016-06-01T11:27:34.403Z,26.92
2016-06-01T11:28:34.453Z,27.23
2016-06-01T11:29:34.518Z,27.07
2016-06-01T11:30:34.473Z,27.08
2016-06-01T11:31:34.538Z,27.19
2016-06-01T11:32:34.556Z,26.86
2016-06-01T11:33:36.013Z,27.08
2016-06-01T11:34:47.484Z,27.29
2016-06-01T11:35:36.159Z,26.96
2016-06-01T11:36:34.662Z,26.82
2016-06-01T11:37:34.727Z,26.81
2016-06-01T11:38:34.745Z,26.86
2016-06-01T11:39:35.233Z,27.04
2016-06-01T11:40:37.922Z,26.51
2016-06-01T11:41:37.909Z,26.56
2016-06-01T11:42:34.896Z,26.23
2016-06-01T11:43:34.961Z,26.06
2016-06-01T11:44:34.933Z,26.03
2016-06-01T11:45:34.842Z,25.85
2016-06-01T11:46:34.829Z,26.01
2016-06-01T11:47:35.113Z,26.03
2016-06-01T11:48:35.054Z,26.03
2016-06-01T11:49:35.087Z,25.88
2016-06-01T11:50:36.527Z,25.85
2016-06-01T11:51:35.155Z,25.86
2016-06-01T11:52:35.282Z,25.89
2016-06-01T11:53:35.207Z,25.96
2016-06-01T11:54:35.381Z,25.92
2016-06-01T11:55:35.743Z,25.81
2016-06-01T11:56:35.293Z,26.08
2016-06-01T11:57:44.609Z,26.15
2016-06-01T11:58:36.751Z,26.11
2016-06-01T11:59:35.239Z,26.13
2016-06-01T12:00:35.429Z,26.16
2016-06-01T12:01:54.635Z,26.06
2016-06-01T12:02:48.184Z,26.23
2016-06-01T12:03:35.687Z,26.34
2016-06-01T12:04:54.690Z,26.36
2016-06-01T12:05:35.678Z,26.19
2016-06-01T12:06:35.679Z,25.92
2016-06-01T12:07:35.683Z,25.89
2016-06-01T12:08:35.608Z,25.85
2016-06-01T12:09:48.610Z,26.03
2016-06-01T12:10:35.455Z,26.11
2016-06-01T12:12:01.475Z,26.16
2016-06-01T12:12:35.758Z,26.26
2016-06-01T12:14:35.842Z,26.23
2016-06-01T12:15:35.844Z,26.19
2016-06-01T12:16:35.910Z,26.22
2016-06-01T12:17:35.912Z,26.23
2016-06-01T12:18:35.930Z,26.08
2016-06-01T12:19:48.683Z,26.07
2016-06-01T12:20:35.998Z,26.33
2016-06-01T12:21:36.017Z,26.46
2016-06-01T12:22:48.645Z,26.45
2016-06-01T12:23:36.132Z,26.59
2016-06-01T12:24:36.696Z,26.64
2016-06-01T12:25:37.528Z,26.71
2016-06-01T12:26:35.859Z,26.6
2016-06-01T12:27:36.236Z,26.49
2016-06-01T12:28:36.208Z,26.51
2016-06-01T12:29:36.289Z,26.7
2016-06-01T12:30:37.697Z,26.64
2016-06-01T12:31:36.310Z,26.55
2016-06-01T12:32:36.328Z,26.55
2016-06-01T12:33:36.377Z,26.67
2016-06-01T12:34:36.427Z,26.55
2016-06-01T12:35:37.836Z,26.59
2016-06-01T12:36:36.541Z,26.36
2016-06-01T12:37:36.498Z,26.29
2016-06-01T12:38:36.609Z,26.33
2016-06-01T12:39:55.644Z,26.39
2016-06-01T12:40:36.615Z,26.55
2016-06-01T12:41:36.586Z,26.6
2016-06-01T12:42:36.620Z,26.6
2016-06-01T12:43:49.514Z,26.61
2016-06-01T12:44:36.688Z,26.64
2016-06-01T12:45:36.799Z,26.63
2016-06-01T12:46:55.788Z,26.59
2016-06-01T12:47:36.665Z,26.79
2016-06-01T12:48:36.808Z,26.93
2016-06-01T12:49:36.827Z,27.05
2016-06-01T12:50:39.907Z,27.15
2016-06-01T12:51:36.879Z,27.05
2016-06-01T12:52:43.179Z,27.15
2016-06-01T12:53:36.932Z,27.01
2016-06-01T12:54:37.684Z,26.85
2016-06-01T12:55:49.734Z,26.76
2016-06-01T12:56:37.033Z,26.76
2016-06-01T12:57:37.067Z,26.93
2016-06-01T12:58:36.960Z,27.08
2016-06-01T12:59:49.854Z,27.25
2016-06-01T13:00:37.153Z,27.26
2016-06-01T13:01:37.031Z,27.16
2016-06-01T13:02:37.206Z,27.13
2016-06-01T13:03:37.223Z,27.11
2016-06-01T13:04:50.039Z,27.29
2016-06-01T13:05:50.245Z,27.43
2016-06-01T13:06:37.325Z,27.47